Time;durP1;ratioP1;P1;durP2;ratioP2;P2;SDS_P1;SDS_P2;PMS_P1;PMS_P2;Temp;Humidity;BMP_temperature;BMP_pressure;BME280_temperature;BME280_humidity;BME280_pressure;Samples;Min_cycle;Max_cycle;Signal;HPM_P1;HPM_P2
2021/04/12 00:00:14;;;;;;;2.30;1.63;;;18.20;60.50;;;;;;5068625;28;20042;-44
2021/04/12 00:02:48;;;;;;;1.88;1.77;;;18.20;60.50;;;;;;5029551;28;20064;-44
2021/04/12 00:05:22;;;;;;;2.17;1.83;;;18.20;60.60;;;;;;5014080;28;20129;-43
2021/04/12 00:07:56;;;;;;;1.88;1.50;;;18.10;60.10;;;;;;5028432;28;20030;-42
2021/04/12 00:10:32;;;;;;;;;;;18.20;60.40;;;;;;5017068;28;20069;-44
2021/04/12 00:13:07;;;;;;;2.95;1.90;;;18.20;60.70;;;;;;4997530;28;19951;-44
2021/04/12 00:15:38;;;;;;;2.40;1.60;;;18.10;60.50;;;;;;5010052;28;20022;-42
2021/04/12 00:18:13;;;;;;;2.00;1.90;;;18.10;60.40;;;;;;5017765;28;20055;-44
2021/04/12 00:20:50;;;;;;;2.30;1.35;;;18.10;60.50;;;;;;5010152;28;20032;-42
2021/04/12 00:23:17;;;;;;;2.03;1.75;;;18.10;60.50;;;;;;5008053;28;20597;-44
2021/04/12 00:25:51;;;;;;;2.33;1.33;;;18.10;60.30;;;;;;5002213;28;20033;-41
2021/04/12 00:28:36;;;;;;;1.88;1.60;;;18.10;60.70;;;;;;4999454;28;20028;-41
2021/04/12 00:31:21;;;;;;;1.60;1.50;;;18.00;60.50;;;;;;5013146;28;20039;-44
2021/04/12 00:34:15;;;;;;;1.35;1.30;;;18.00;60.40;;;;;;4995607;28;20083;-44
2021/04/12 00:36:47;;;;;;;1.83;1.73;;;18.00;60.30;;;;;;5009050;28;20081;-45
2021/04/12 00:39:18;;;;;;;1.70;1.60;;;18.00;60.30;;;;;;5064560;28;20037;-42
2021/04/12 00:42:02;;;;;;;1.70;1.60;;;18.00;61.30;;;;;;5068637;28;20497;-44
2021/04/12 00:45:04;;;;;;;2.50;1.70;;;18.00;60.40;;;;;;5068680;28;20029;-43
2021/04/12 00:47:54;;;;;;;1.85;1.40;;;18.00;60.40;;;;;;5070065;28;20025;-44
2021/04/12 00:50:25;;;;;;;1.70;1.60;;;18.00;60.00;;;;;;5063469;28;20024;-45
2021/04/12 00:52:54;;;;;;;1.63;1.33;;;18.00;60.10;;;;;;5057962;28;20033;-41
2021/04/12 00:55:25;;;;;;;1.42;1.33;;;18.00;60.00;;;;;;5070091;28;20107;-42
2021/04/12 00:58:23;;;;;;;1.50;1.40;;;18.00;60.20;;;;;;5070605;28;20108;-44
2021/04/12 01:01:09;;;;;;;1.67;1.23;;;17.90;60.10;;;;;;5059890;28;20028;-42
2021/04/12 01:03:47;;;;;;;2.85;1.30;;;18.00;60.00;;;;;;5066390;28;20528;-42
2021/04/12 01:06:34;;;;;;;2.10;1.45;;;18.00;60.10;;;;;;5070360;28;20033;-42
2021/04/12 01:09:03;;;;;;;2.42;1.35;;;18.00;60.00;;;;;;5057742;28;20486;-42
2021/04/12 01:11:41;;;;;;;1.33;1.20;;;18.00;59.90;;;;;;5065462;28;20024;-42
2021/04/12 01:14:15;;;;;;;1.88;1.10;;;17.90;60.10;;;;;;5069576;28;20024;-42
2021/04/12 01:16:56;;;;;;;1.45;1.35;;;17.90;59.80;;;;;;5069771;28;20159;-43
2021/04/12 01:19:53;;;;;;;1.40;1.30;;;17.90;59.80;;;;;;5054133;28;20044;-42
2021/04/12 01:22:44;;;;;;;1.55;1.45;;;17.90;59.80;;;;;;5054297;28;20401;-45
2021/04/12 01:25:47;;;;;;;1.20;1.10;;;17.90;59.80;;;;;;5054612;28;20025;-44
2021/04/12 01:28:37;;;;;;;1.42;1.33;;;17.90;59.60;;;;;;5055086;28;20102;-49
2021/04/12 01:31:24;;;;;;;1.40;1.00;;;17.90;59.80;;;;;;5068546;28;20404;-44
2021/04/12 01:33:50;;;;;;;1.40;1.10;;;17.90;59.70;;;;;;5068011;28;20036;-41
2021/04/12 01:36:47;;;;;;;1.13;0.82;;;17.90;59.80;;;;;;5071527;28;20025;-40
2021/04/12 01:39:34;;;;;;;1.30;1.20;;;17.90;59.70;;;;;;5016267;28;20132;-42
2021/04/12 01:42:54;;;;;;;1.42;1.33;;;17.90;59.60;;;;;;5017475;28;20143;-42
2021/04/12 01:45:19;;;;;;;1.33;1.10;;;17.90;59.80;;;;;;5003499;28;20069;-42
2021/04/12 01:48:09;;;;;;;1.30;1.20;;;17.90;59.80;;;;;;5022379;28;20552;-44
2021/04/12 01:50:53;;;;;;;1.88;1.40;;;17.80;59.50;;;;;;5023156;28;20521;-44
2021/04/12 01:53:56;;;;;;;1.63;1.02;;;17.80;59.50;;;;;;5021201;28;20117;-42
2021/04/12 01:56:40;;;;;;;1.25;1.20;;;17.80;59.70;;;;;;5021322;28;20410;-42
2021/04/12 01:59:16;;;;;;;1.50;1.20;;;17.90;59.60;;;;;;5020130;28;20029;-45
2021/04/12 02:02:12;;;;;;;1.20;1.10;;;17.90;59.50;;;;;;5010144;28;20038;-44
2021/04/12 02:04:47;;;;;;;1.35;1.20;;;17.80;59.50;;;;;;4990941;28;20061;-42
2021/04/12 02:07:27;;;;;;;1.20;1.10;;;17.80;59.90;;;;;;5019485;28;20034;-44
2021/04/12 02:10:18;;;;;;;1.00;0.90;;;17.80;59.60;;;;;;5016387;28;20045;-44
2021/04/12 02:13:16;;;;;;;2.75;0.90;;;17.80;59.70;;;;;;5006669;28;20056;-42
2021/04/12 02:16:06;;;;;;;1.02;1.00;;;17.80;59.60;;;;;;5014630;28;20991;-41
2021/04/12 02:18:58;;;;;;;1.02;1.02;;;17.80;59.50;;;;;;5028785;28;20038;-41
2021/04/12 02:21:38;;;;;;;1.30;0.90;;;17.80;59.50;;;;;;5054298;28;20057;-42
2021/04/12 02:24:14;;;;;;;0.82;0.68;;;17.80;59.30;;;;;;5070660;28;20025;-43
2021/04/12 02:27:00;;;;;;;1.25;1.00;;;17.80;59.50;;;;;;5068082;28;20067;-43
2021/04/12 02:29:46;;;;;;;1.63;0.90;;;17.80;59.10;;;;;;5068472;28;20025;-43
2021/04/12 02:32:29;;;;;;;1.00;0.90;;;17.90;59.30;;;;;;5069646;28;20067;-41
2021/04/12 02:35:06;;;;;;;1.20;1.10;;;17.80;59.20;;;;;;5069783;28;20384;-39
2021/04/12 02:37:35;;;;;;;1.35;1.10;;;17.90;59.20;;;;;;5069834;28;20055;-44
2021/04/12 02:40:25;;;;;;;1.95;0.90;;;17.90;59.10;;;;;;5071730;28;20032;-43
2021/04/12 02:43:55;;;;;;;0.93;0.90;;;17.90;59.00;;;;;;5070821;28;20053;-42
2021/04/12 02:46:22;;;;;;;1.58;1.33;;;17.90;59.00;;;;;;4972259;28;20128;-43
2021/04/12 02:49:09;;;;;;;0.90;0.90;;;17.90;59.00;;;;;;4967676;28;20098;-44
2021/04/12 02:52:09;;;;;;;0.82;0.82;;;17.90;58.90;;;;;;4970947;28;20089;-42
2021/04/12 02:55:11;;;;;;;1.70;0.98;;;17.90;59.00;;;;;;4972278;28;20518;-44
2021/04/12 02:58:07;;;;;;;1.55;1.38;;;17.90;58.80;;;;;;4979632;28;20045;-46
2021/04/12 03:01:00;;;;;;;1.75;1.27;;;18.00;58.60;;;;;;4972230;28;20399;-42
2021/04/12 03:04:04;;;;;;;0.80;0.80;;;18.00;58.50;;;;;;4974126;28;20444;-43
2021/04/12 03:06:50;;;;;;;1.15;1.05;;;18.00;58.50;;;;;;4973923;28;20413;-43
2021/04/12 03:09:31;;;;;;;1.10;1.00;;;18.10;58.20;;;;;;4957821;28;20162;-41
2021/04/12 03:12:31;;;;;;;0.90;0.90;;;18.20;58.20;;;;;;4986547;28;20518;-43
2021/04/12 03:15:05;;;;;;;1.00;1.00;;;18.20;58.20;;;;;;4971379;28;20037;-41
2021/04/12 03:18:08;;;;;;;4.15;1.08;;;18.20;57.90;;;;;;5011762;28;20033;-43
2021/04/12 03:20:36;;;;;;;0.80;0.80;;;18.10;58.20;;;;;;5012515;28;20522;-43
2021/04/12 03:23:21;;;;;;;0.80;0.80;;;18.20;58.60;;;;;;5036212;28;20052;-43
2021/04/12 03:25:46;;;;;;;;;;;18.20;58.80;;;;;;5066994;28;20017;-44
2021/04/12 03:28:41;;;;;;;0.82;0.82;;;18.10;59.00;;;;;;5057420;28;20013;-40
2021/04/12 03:31:30;;;;;;;0.95;0.90;;;18.10;58.60;;;;;;5057385;28;20107;-44
2021/04/12 03:34:01;;;;;;;0.80;0.80;;;18.20;59.10;;;;;;5061810;28;20051;-43
2021/04/12 03:36:34;;;;;;;2.38;1.00;;;18.20;58.90;;;;;;5072499;28;20017;-38
2021/04/12 03:39:10;;;;;;;2.58;1.00;;;18.20;58.80;;;;;;5067308;28;20049;-41
2021/04/12 03:41:51;;;;;;;1.52;1.13;;;18.10;58.80;;;;;;5068036;28;20024;-42
2021/04/12 03:44:26;;;;;;;0.85;0.77;;;18.00;58.80;;;;;;5070848;28;20032;-43
2021/04/12 03:46:55;;;;;;;0.80;0.80;;;18.10;59.60;;;;;;5063095;28;20028;-43
2021/04/12 03:49:27;;;;;;;0.95;0.93;;;18.00;59.10;;;;;;5066466;28;20507;-42
2021/04/12 03:52:18;;;;;;;1.63;0.90;;;18.10;58.90;;;;;;5050725;28;20074;-42
2021/04/12 03:55:02;;;;;;;0.85;0.73;;;18.10;58.60;;;;;;5063791;28;20070;-40
2021/04/12 03:57:59;;;;;;;0.70;0.70;;;18.00;58.90;;;;;;5071071;28;20056;-42
2021/04/12 04:00:49;;;;;;;0.70;0.70;;;17.90;58.90;;;;;;5063451;28;20417;-42
2021/04/12 04:03:34;;;;;;;1.08;1.08;;;17.90;58.90;;;;;;5062034;28;20416;-42
2021/04/12 04:06:18;;;;;;;0.95;0.88;;;17.90;59.00;;;;;;5065735;28;20114;-43
2021/04/12 04:09:02;;;;;;;0.80;0.80;;;17.80;59.00;;;;;;5061632;28;20032;-43
2021/04/12 04:11:43;;;;;;;0.98;0.90;;;17.80;59.50;;;;;;5060385;28;20081;-41
2021/04/12 04:14:36;;;;;;;0.98;0.90;;;17.80;59.20;;;;;;5067402;28;20024;-40
2021/04/12 04:17:30;;;;;;;0.85;0.80;;;17.90;59.20;;;;;;5050155;28;20385;-43
2021/04/12 04:20:10;;;;;;;0.85;0.85;;;17.90;58.80;;;;;;5068381;28;20029;-41
2021/04/12 04:22:42;;;;;;;1.10;1.00;;;17.80;59.10;;;;;;5071763;28;20059;-41
2021/04/12 04:25:26;;;;;;;0.80;0.80;;;17.90;59.00;;;;;;5067190;28;20482;-43
2021/04/12 04:27:52;;;;;;;;;;;18.00;58.50;;;;;;5068095;28;20524;-43
2021/04/12 04:30:55;;;;;;;0.93;0.80;;;17.80;59.00;;;;;;5070314;28;19908;-41
2021/04/12 04:33:35;;;;;;;1.02;0.90;;;17.70;59.00;;;;;;5070968;28;20563;-43
2021/04/12 04:36:42;;;;;;;1.25;1.15;;;17.80;59.20;;;;;;5070444;28;20115;-43
2021/04/12 04:39:29;;;;;;;1.00;1.00;;;17.70;59.60;;;;;;5060160;28;20041;-42
2021/04/12 04:42:19;;;;;;;1.10;1.00;;;17.60;59.30;;;;;;5069855;28;20052;-42
2021/04/12 04:45:08;;;;;;;1.17;1.05;;;17.60;59.60;;;;;;5063457;28;20126;-41
2021/04/12 04:47:55;;;;;;;1.83;0.90;;;17.60;59.30;;;;;;5069032;28;20021;-44
2021/04/12 04:51:02;;;;;;;0.93;0.90;;;17.60;59.30;;;;;;5064880;28;20031;-46
2021/04/12 04:54:05;;;;;;;0.80;0.80;;;17.60;59.30;;;;;;5004232;28;20068;-43
2021/04/12 04:56:37;;;;;;;0.90;0.90;;;17.60;59.40;;;;;;4987963;28;20053;-41
2021/04/12 04:59:29;;;;;;;1.75;0.90;;;17.50;59.20;;;;;;4995115;28;20133;-43
2021/04/12 05:02:36;;;;;;;4.88;1.20;;;17.50;60.10;;;;;;4992759;28;20037;-40
2021/04/12 05:05:22;;;;;;;1.10;1.10;;;17.50;59.40;;;;;;4990928;28;20040;-43
2021/04/12 05:08:19;;;;;;;1.50;0.70;;;17.50;59.30;;;;;;5002307;28;20432;-44
2021/04/12 05:11:05;;;;;;;0.70;0.70;;;17.50;59.40;;;;;;5005108;28;20050;-42
2021/04/12 05:13:57;;;;;;;0.80;0.80;;;17.50;59.30;;;;;;5005068;28;20410;-44
2021/04/12 05:16:44;;;;;;;0.93;0.70;;;17.40;59.40;;;;;;5001717;28;20049;-44
2021/04/12 05:19:47;;;;;;;0.70;0.70;;;17.40;59.40;;;;;;5004486;28;20093;-45
2021/04/12 05:22:49;;;;;;;0.90;0.90;;;17.40;59.40;;;;;;5006736;28;20037;-42
2021/04/12 05:25:46;;;;;;;0.88;0.88;;;17.40;59.30;;;;;;5007893;28;20035;-43
2021/04/12 05:28:23;;;;;;;0.60;0.60;;;17.40;59.40;;;;;;4998284;28;20030;-45
2021/04/12 05:31:26;;;;;;;1.08;0.82;;;17.40;59.30;;;;;;5073441;28;20029;-42
2021/04/12 05:34:39;;;;;;;0.70;0.70;;;17.40;59.30;;;;;;5072479;28;20435;-43
2021/04/12 05:37:32;;;;;;;0.70;0.70;;;17.30;59.30;;;;;;5061141;28;20043;-45
2021/04/12 05:40:31;;;;;;;1.60;0.80;;;17.40;59.20;;;;;;5061888;28;20040;-45
2021/04/12 05:43:30;;;;;;;1.00;0.93;;;17.40;59.30;;;;;;5073199;28;20048;-44
2021/04/12 05:46:22;;;;;;;1.75;0.82;;;17.30;59.20;;;;;;5072684;28;20033;-43
2021/04/12 05:49:23;;;;;;;1.65;0.90;;;17.30;59.10;;;;;;5070652;28;20526;-41
2021/04/12 05:52:00;;;;;;;1.30;0.90;;;17.30;59.20;;;;;;5010976;28;20072;-44
2021/04/12 05:54:53;;;;;;;0.90;0.90;;;17.30;59.20;;;;;;4998679;28;20056;-44
2021/04/12 05:57:57;;;;;;;0.80;0.80;;;17.30;59.20;;;;;;4997921;28;20046;-42
2021/04/12 06:00:50;;;;;;;0.90;0.90;;;17.30;59.10;;;;;;4998724;28;20049;-44
2021/04/12 06:03:39;;;;;;;0.98;0.98;;;17.30;59.10;;;;;;4994466;28;20056;-44
2021/04/12 06:06:16;;;;;;;1.13;1.00;;;17.30;59.70;;;;;;4978536;28;20572;-43
2021/04/12 06:09:16;;;;;;;0.93;0.93;;;17.40;58.80;;;;;;5001551;28;20110;-43
2021/04/12 06:11:50;;;;;;;1.10;1.08;;;17.30;59.00;;;;;;4992425;28;20113;-43
2021/04/12 06:14:24;;;;;;;;;;;17.40;59.00;;;;;;4991193;28;20493;-43
2021/04/12 06:17:17;;;;;;;1.10;0.95;;;17.30;58.70;;;;;;5010902;28;19909;-44
2021/04/12 06:19:45;;;;;;;2.85;0.90;;;17.40;58.80;;;;;;4993755;28;20030;-46
2021/04/12 06:22:11;;;;;;;1.02;0.95;;;17.40;59.10;;;;;;4996349;28;20079;-43
2021/04/12 06:25:13;;;;;;;1.05;1.00;;;17.40;58.80;;;;;;5009093;28;20030;-43
2021/04/12 06:28:00;;;;;;;2.33;0.82;;;17.30;58.80;;;;;;5014695;28;20045;-47
2021/04/12 06:31:03;;;;;;;1.00;1.00;;;17.30;59.00;;;;;;5073229;28;20021;-42
2021/04/12 06:33:49;;;;;;;0.80;0.60;;;17.30;59.30;;;;;;5068379;28;20025;-44
2021/04/12 06:36:20;;;;;;;1.83;0.98;;;17.40;58.80;;;;;;5071413;28;20043;-43
2021/04/12 06:39:10;;;;;;;0.88;0.80;;;17.50;58.90;;;;;;5065676;28;20032;-43
2021/04/12 06:42:01;;;;;;;1.08;1.05;;;17.40;58.80;;;;;;5068023;28;20027;-44
2021/04/12 06:44:37;;;;;;;1.05;1.05;;;17.40;59.00;;;;;;5071127;28;20032;-44
2021/04/12 06:47:40;;;;;;;1.52;1.00;;;17.30;59.00;;;;;;5068703;28;20032;-45
2021/04/12 06:50:28;;;;;;;0.95;0.88;;;17.30;59.20;;;;;;5062369;28;20052;-44
2021/04/12 06:53:21;;;;;;;1.20;1.10;;;17.30;59.30;;;;;;5062609;28;20024;-42
2021/04/12 06:55:56;;;;;;;1.10;1.10;;;17.40;59.10;;;;;;5063678;28;20071;-43
2021/04/12 06:58:43;;;;;;;1.90;1.13;;;17.30;59.60;;;;;;5062036;28;20051;-42
2021/04/12 07:01:45;;;;;;;2.17;1.15;;;17.40;60.30;;;;;;5048990;28;20036;-43
2021/04/12 07:04:41;;;;;;;1.85;0.90;;;17.40;59.50;;;;;;5032654;28;20099;-41
2021/04/12 07:07:25;;;;;;;1.00;0.90;;;17.60;60.40;;;;;;5044566;28;20041;-42
2021/04/12 07:09:57;;;;;;;1.08;1.08;;;17.60;59.60;;;;;;5039944;28;20037;-42
2021/04/12 07:12:47;;;;;;;1.40;0.90;;;17.50;59.70;;;;;;5043951;28;20080;-43
2021/04/12 07:15:15;;;;;;;1.27;1.20;;;17.60;59.60;;;;;;5040446;28;20531;-44
2021/04/12 07:17:54;;;;;;;1.50;1.00;;;17.60;59.50;;;;;;5037608;28;20052;-42
2021/04/12 07:20:45;;;;;;;1.38;1.38;;;17.60;59.10;;;;;;5034842;28;20450;-44
2021/04/12 07:23:41;;;;;;;1.60;1.33;;;17.60;59.20;;;;;;5044181;28;20523;-43
2021/04/12 07:26:31;;;;;;;1.50;1.40;;;17.60;59.00;;;;;;5037012;28;20536;-43
2021/04/12 07:29:34;;;;;;;1.83;1.55;;;17.70;58.80;;;;;;5041048;28;20053;-44
2021/04/12 07:32:21;;;;;;;1.60;1.50;;;17.90;58.50;;;;;;5038314;28;20556;-43
2021/04/12 07:35:28;;;;;;;1.70;1.60;;;18.00;58.10;;;;;;5039820;28;20041;-44
2021/04/12 07:38:19;;;;;;;1.70;1.30;;;18.10;57.60;;;;;;4983428;28;20038;-43
2021/04/12 07:41:11;;;;;;;2.88;1.50;;;18.40;57.30;;;;;;4987802;28;20100;-41
2021/04/12 07:44:15;;;;;;;7.00;1.65;;;18.40;57.20;;;;;;4938171;29;20539;-43
2021/04/12 07:47:00;;;;;;;6.80;1.58;;;18.30;57.30;;;;;;4926233;29;20539;-43
2021/04/12 07:49:48;;;;;;;1.88;1.35;;;18.50;56.80;;;;;;4939623;29;20054;-43
2021/04/12 07:52:32;;;;;;;3.10;1.20;;;18.70;56.20;;;;;;4924731;29;20075;-44
2021/04/12 07:55:09;;;;;;;1.40;1.30;;;18.60;56.60;;;;;;4941714;29;20138;-41
2021/04/12 07:57:49;;;;;;;4.53;1.50;;;18.50;56.90;;;;;;4939674;29;20051;-45
2021/04/12 08:00:15;;;;;;;1.60;1.50;;;18.40;56.90;;;;;;4939725;28;20045;-44
2021/04/12 08:03:17;;;;;;;2.80;1.30;;;18.30;57.00;;;;;;4940701;29;20047;-43
2021/04/12 08:06:20;;;;;;;2.42;1.80;;;18.30;57.20;;;;;;4938430;29;20130;-43
2021/04/12 08:09:29;;;;;;;3.65;1.80;;;18.20;56.80;;;;;;4629276;28;10000359;-41
2021/04/12 08:12:32;;;;;;;4.20;1.60;;;18.10;57.80;;;;;;4902668;29;20135;-43
2021/04/12 08:15:22;;;;;;;4.50;1.40;;;18.00;57.90;;;;;;4903862;29;20048;-47
2021/04/12 08:18:24;;;;;;;1.67;1.58;;;17.90;57.80;;;;;;4904680;29;20454;-42
2021/04/12 08:21:10;;;;;;;1.70;1.60;;;18.00;57.50;;;;;;4923644;28;20047;-45
2021/04/12 08:24:03;;;;;;;1.73;1.60;;;18.00;55.90;;;;;;4940250;28;20055;-44
2021/04/12 08:26:48;;;;;;;1.52;1.42;;;18.00;57.10;;;;;;4926863;29;20047;-44
2021/04/12 08:29:24;;;;;;;;;;;18.00;57.40;;;;;;4940619;28;20465;-46
2021/04/12 08:32:17;;;;;;;3.10;1.67;;;17.90;57.20;;;;;;4927699;29;19997;-43
2021/04/12 08:35:16;;;;;;;1.65;1.55;;;17.90;57.50;;;;;;4939907;28;20051;-43
2021/04/12 08:38:18;;;;;;;2.30;1.42;;;17.90;57.40;;;;;;4939397;28;20106;-46
2021/04/12 08:40:56;;;;;;;4.22;1.52;;;17.90;56.80;;;;;;4940157;28;20567;-41
2021/04/12 08:43:40;;;;;;;1.75;1.30;;;17.90;57.30;;;;;;5015253;28;20076;-47
2021/04/12 08:46:11;;;;;;;2.40;1.40;;;18.00;57.10;;;;;;5034434;28;20087;-45
2021/04/12 08:49:12;;;;;;;1.70;1.48;;;18.00;56.50;;;;;;5038894;28;20440;-44
2021/04/12 08:51:52;;;;;;;1.35;1.25;;;18.00;57.20;;;;;;5018376;28;20068;-46
2021/04/12 08:54:46;;;;;;;2.03;1.40;;;17.90;57.30;;;;;;5042770;28;20103;-44
2021/04/12 08:57:23;;;;;;;1.17;1.10;;;18.00;57.10;;;;;;5036594;28;20072;-45
2021/04/12 09:00:26;;;;;;;2.55;1.42;;;18.00;57.30;;;;;;5042755;28;20049;-45
2021/04/12 09:03:14;;;;;;;0.93;0.93;;;18.00;57.20;;;;;;5032829;28;20049;-43
2021/04/12 09:05:52;;;;;;;1.20;1.10;;;18.00;57.00;;;;;;5044492;28;20040;-45
2021/04/12 09:08:51;;;;;;;1.83;1.10;;;18.10;56.70;;;;;;5047453;28;20513;-45
2021/04/12 09:11:50;;;;;;;1.60;1.10;;;18.20;55.60;;;;;;5043136;28;20134;-44
2021/04/12 09:14:53;;;;;;;1.77;1.08;;;18.20;55.50;;;;;;5044347;28;20041;-45
2021/04/12 09:17:44;;;;;;;1.00;1.00;;;18.20;56.70;;;;;;5039198;28;20049;-44
2021/04/12 09:20:16;;;;;;;1.20;0.93;;;18.20;54.80;;;;;;5026157;28;20065;-44
2021/04/12 09:22:55;;;;;;;1.00;1.00;;;18.30;52.90;;;;;;5042569;28;20050;-45
2021/04/12 09:25:50;;;;;;;1.08;1.08;;;18.40;53.50;;;;;;5022004;28;20541;-44
2021/04/12 09:28:38;;;;;;;1.10;1.00;;;18.40;53.40;;;;;;5046123;28;20041;-43
2021/04/12 09:31:14;;;;;;;1.02;1.00;;;18.30;55.10;;;;;;5050639;28;20033;-44
2021/04/12 09:34:17;;;;;;;1.02;0.90;;;18.30;54.10;;;;;;5033748;28;20124;-44
2021/04/12 09:36:59;;;;;;;1.00;0.80;;;18.30;53.70;;;;;;5040340;28;20051;-44
2021/04/12 09:40:02;;;;;;;2.88;0.90;;;18.40;53.30;;;;;;5043102;28;20041;-44
2021/04/12 09:42:47;;;;;;;0.88;0.88;;;18.50;52.30;;;;;;5050177;28;20049;-41
2021/04/12 09:45:44;;;;;;;1.02;0.85;;;18.60;52.90;;;;;;5046725;28;20053;-42
2021/04/12 09:48:29;;;;;;;2.38;1.00;;;18.60;53.40;;;;;;5046496;28;20055;-41
2021/04/12 09:51:22;;;;;;;1.55;0.80;;;18.50;52.00;;;;;;5046435;28;20051;-43
2021/04/12 09:54:18;;;;;;;1.17;0.75;;;18.60;51.20;;;;;;5031125;28;20065;-41
2021/04/12 09:57:17;;;;;;;1.38;1.02;;;18.60;51.70;;;;;;5045386;28;20045;-40
2021/04/12 09:59:49;;;;;;;0.70;0.70;;;18.60;50.40;;;;;;5030386;28;20083;-41
2021/04/12 10:02:33;;;;;;;0.75;0.75;;;18.60;53.20;;;;;;5047269;28;20040;-40
2021/04/12 10:05:08;;;;;;;0.88;0.55;;;18.50;53.50;;;;;;5031874;28;20096;-39
2021/04/12 10:07:54;;;;;;;1.17;0.80;;;18.40;53.30;;;;;;5045868;28;20049;-42
2021/04/12 10:10:43;;;;;;;0.60;0.60;;;18.30;54.10;;;;;;5042523;28;20120;-45
2021/04/12 10:13:30;;;;;;;1.63;0.80;;;18.30;52.40;;;;;;5038424;28;20045;-39
2021/04/12 10:16:19;;;;;;;1.08;0.98;;;18.50;52.40;;;;;;5029483;28;20056;-42
2021/04/12 10:19:12;;;;;;;0.85;0.82;;;18.50;52.40;;;;;;5035841;28;20049;-42
2021/04/12 10:22:05;;;;;;;2.60;1.40;;;18.50;51.50;;;;;;5037775;28;20048;-42
2021/04/12 10:24:49;;;;;;;1.80;1.70;;;18.50;51.60;;;;;;5050393;28;20057;-42
2021/04/12 10:27:21;;;;;;;1.70;1.60;;;18.60;50.30;;;;;;5045399;28;20051;-40
2021/04/12 10:29:52;;;;;;;2.50;2.22;;;18.70;48.00;;;;;;5043832;28;20052;-42
2021/04/12 10:32:21;;;;;;;2.78;2.40;;;18.70;48.20;;;;;;5029957;28;20053;-43
2021/04/12 10:34:48;;;;;;;3.65;2.60;;;18.80;46.80;;;;;;5045733;28;20107;-40
2021/04/12 10:37:40;;;;;;;2.63;2.42;;;18.70;47.20;;;;;;5038406;28;20087;-41
2021/04/12 10:40:24;;;;;;;2.40;1.88;;;18.80;47.00;;;;;;5043653;28;20128;-41
2021/04/12 10:43:01;;;;;;;3.22;2.70;;;18.70;49.60;;;;;;5044650;28;20045;-42
2021/04/12 10:45:32;;;;;;;3.25;2.75;;;18.60;49.10;;;;;;5048773;28;20057;-43
2021/04/12 10:48:06;;;;;;;3.03;2.40;;;18.70;48.20;;;;;;5029386;28;20052;-42
2021/04/12 10:50:53;;;;;;;2.65;2.45;;;18.70;49.00;;;;;;5021122;28;20107;-42
2021/04/12 10:53:43;;;;;;;2.50;2.30;;;18.70;50.30;;;;;;5019084;28;20049;-42
2021/04/12 10:56:35;;;;;;;2.38;2.17;;;18.70;49.30;;;;;;5024353;28;20048;-41
2021/04/12 10:59:26;;;;;;;2.65;2.45;;;18.70;49.80;;;;;;5019052;28;20041;-41
2021/04/12 11:02:17;;;;;;;3.17;2.42;;;18.70;48.50;;;;;;5039119;28;20041;-41
2021/04/12 11:04:50;;;;;;;2.15;1.95;;;18.70;49.00;;;;;;5024357;28;20077;-42
2021/04/12 11:07:17;;;;;;;3.65;1.77;;;18.70;49.70;;;;;;5039783;28;20056;-41
2021/04/12 11:10:20;;;;;;;2.20;1.98;;;18.70;48.30;;;;;;5041133;28;20741;-42
2021/04/12 11:12:48;;;;;;;3.17;2.17;;;18.80;49.50;;;;;;5040086;28;20142;-43
2021/04/12 11:15:46;;;;;;;3.40;2.10;;;18.90;50.50;;;;;;5043323;28;20052;-37
2021/04/12 11:18:20;;;;;;;2.22;2.03;;;19.00;50.90;;;;;;4976402;28;20065;-42
2021/04/12 11:20:55;;;;;;;4.43;1.90;;;19.00;52.10;;;;;;4982388;28;20050;-40
2021/04/12 11:23:27;;;;;;;2.45;1.83;;;19.10;52.10;;;;;;4964074;28;20145;-42
2021/04/12 11:25:57;;;;;;;2.03;1.52;;;19.10;52.20;;;;;;4963967;28;20062;-42
2021/04/12 11:28:41;;;;;;;2.13;1.88;;;19.20;52.80;;;;;;4966469;28;20541;-42
2021/04/12 11:31:38;;;;;;;2.03;1.60;;;19.20;52.20;;;;;;4981745;28;20064;-42
2021/04/12 11:34:17;;;;;;;2.75;1.80;;;19.30;52.30;;;;;;4967373;28;20062;-45
2021/04/12 11:37:04;;;;;;;1.63;1.50;;;19.30;52.20;;;;;;4978439;28;20050;-43
2021/04/12 11:39:31;;;;;;;1.77;1.67;;;19.30;52.60;;;;;;4987665;28;20106;-43
2021/04/12 11:42:05;;;;;;;2.45;1.65;;;19.30;52.90;;;;;;4968841;28;20046;-46
2021/04/12 11:44:50;;;;;;;1.90;1.77;;;19.40;52.90;;;;;;4969053;28;20054;-42
2021/04/12 11:47:26;;;;;;;1.60;1.50;;;19.40;53.00;;;;;;4969295;28;20073;-47
2021/04/12 11:50:05;;;;;;;1.98;1.48;;;19.30;53.00;;;;;;4984793;28;20046;-42
2021/04/12 11:52:55;;;;;;;2.80;1.38;;;19.30;53.10;;;;;;4966679;28;20246;-42
2021/04/12 11:55:54;;;;;;;3.15;1.25;;;19.30;53.50;;;;;;5042990;28;20071;-43
2021/04/12 11:58:30;;;;;;;1.48;1.25;;;19.40;53.80;;;;;;5039720;28;20072;-40
2021/04/12 12:00:58;;;;;;;1.60;1.50;;;19.50;53.50;;;;;;5041361;28;20048;-46
2021/04/12 12:03:40;;;;;;;1.40;1.30;;;19.50;53.40;;;;;;5046879;28;20060;-39
2021/04/12 12:06:16;;;;;;;1.88;1.13;;;19.50;53.20;;;;;;5045253;28;20049;-44
2021/04/12 12:08:48;;;;;;;1.27;1.10;;;19.70;53.20;;;;;;5043280;28;20561;-44
2021/04/12 12:11:36;;;;;;;1.00;1.00;;;19.80;53.00;;;;;;5042533;28;20125;-43
2021/04/12 12:14:14;;;;;;;1.73;1.20;;;19.80;53.30;;;;;;5040838;28;20045;-41
2021/04/12 12:16:42;;;;;;;1.00;0.77;;;19.80;52.90;;;;;;5031379;28;20078;-44
2021/04/12 12:19:16;;;;;;;1.45;1.08;;;19.80;53.10;;;;;;5020216;28;20041;-45
2021/04/12 12:22:15;;;;;;;1.08;1.00;;;19.80;53.10;;;;;;5026784;28;20183;-43
2021/04/12 12:25:00;;;;;;;1.35;1.10;;;19.80;52.90;;;;;;5018717;28;20113;-43
2021/04/12 12:27:36;;;;;;;2.63;1.20;;;19.80;52.60;;;;;;5052894;28;20509;-42
2021/04/12 12:30:14;;;;;;;2.25;1.00;;;19.90;52.50;;;;;;5020730;28;20050;-42
2021/04/12 12:33:01;;;;;;;1.58;1.15;;;20.10;52.00;;;;;;5026407;28;20051;-42
2021/04/12 12:36:04;;;;;;;1.50;0.90;;;20.00;51.30;;;;;;5032863;28;20060;-43
2021/04/12 12:38:32;;;;;;;3.00;1.17;;;19.90;50.70;;;;;;5020391;28;20061;-44
2021/04/12 12:40:59;;;;;;;3.47;1.05;;;19.80;51.00;;;;;;4683869;28;10000612;-43
2021/04/12 12:43:27;;;;;;;1.52;0.90;;;19.90;52.70;;;;;;5041507;28;20073;-45
2021/04/12 12:45:54;;;;;;;2.17;0.90;;;19.90;52.30;;;;;;5041195;28;20747;-43
2021/04/12 12:48:21;;;;;;;1.95;0.93;;;20.00;52.60;;;;;;5058683;28;20033;-42
2021/04/12 12:50:59;;;;;;;2.58;0.82;;;20.00;52.50;;;;;;5024676;28;20041;-41
2021/04/12 12:53:34;;;;;;;1.60;0.60;;;20.00;52.70;;;;;;5037635;28;20104;-43
2021/04/12 12:56:24;;;;;;;1.83;1.13;;;20.00;52.60;;;;;;5022669;28;20142;-43
2021/04/12 12:59:01;;;;;;;0.82;0.75;;;20.00;52.60;;;;;;5038843;28;20048;-43
2021/04/12 13:01:33;;;;;;;1.17;0.80;;;20.00;52.70;;;;;;5040309;28;20068;-42
2021/04/12 13:04:22;;;;;;;2.13;0.73;;;19.90;52.70;;;;;;5037642;28;20048;-42
2021/04/12 13:06:50;;;;;;;2.58;1.20;;;19.90;52.80;;;;;;5017870;28;20053;-43
2021/04/12 13:09:36;;;;;;;1.02;0.77;;;19.90;52.90;;;;;;5041708;28;20139;-42
2021/04/12 13:12:04;;;;;;;1.13;0.70;;;19.90;53.00;;;;;;5038977;28;20106;-42
2021/04/12 13:14:38;;;;;;;1.67;0.98;;;19.90;52.90;;;;;;5040355;28;20601;-44
2021/04/12 13:17:27;;;;;;;1.25;0.70;;;20.00;52.00;;;;;;5038303;28;20506;-42
2021/04/12 13:20:00;;;;;;;0.95;0.80;;;20.10;52.70;;;;;;5032771;28;20049;-46
2021/04/12 13:22:30;;;;;;;1.98;0.98;;;20.10;52.00;;;;;;5040972;28;20606;-45
2021/04/12 13:25:12;;;;;;;1.00;0.60;;;20.10;52.20;;;;;;5038226;28;20049;-45
2021/04/12 13:27:38;;;;;;;0.95;0.60;;;20.00;52.60;;;;;;5055986;28;20079;-47
2021/04/12 13:30:06;;;;;;;0.88;0.50;;;20.00;52.60;;;;;;5042624;28;20136;-40
2021/04/12 13:32:39;;;;;;;0.50;0.50;;;19.90;52.90;;;;;;5039589;28;20041;-44
2021/04/12 13:35:12;;;;;;;1.45;0.60;;;20.00;52.40;;;;;;5038862;28;20049;-44
2021/04/12 13:37:37;;;;;;;0.57;0.57;;;20.00;52.20;;;;;;5023870;28;20456;-44
2021/04/12 13:40:09;;;;;;;1.65;1.05;;;20.00;52.10;;;;;;5037516;28;20045;-42
2021/04/12 13:42:47;;;;;;;1.30;0.80;;;20.00;52.60;;;;;;5042380;28;20045;-42
2021/04/12 13:45:13;;;;;;;0.68;0.55;;;20.00;52.70;;;;;;5039381;28;20049;-37
2021/04/12 13:47:49;;;;;;;1.67;0.45;;;20.00;52.50;;;;;;5043969;28;20055;-43
2021/04/12 13:50:23;;;;;;;1.65;0.63;;;20.00;52.20;;;;;;5042533;28;20103;-40
2021/04/12 13:52:57;;;;;;;2.05;0.50;;;20.10;51.70;;;;;;5041328;28;20046;-41
2021/04/12 13:55:38;;;;;;;1.92;0.85;;;20.10;51.50;;;;;;5043851;28;20049;-43
2021/04/12 13:58:09;;;;;;;0.85;0.60;;;20.00;52.10;;;;;;5027678;28;20466;-44
2021/04/12 14:00:41;;;;;;;0.40;0.40;;;20.00;51.90;;;;;;5028635;28;20071;-41
2021/04/12 14:03:24;;;;;;;0.52;0.52;;;20.20;51.30;;;;;;5042695;28;20111;-44
2021/04/12 14:05:56;;;;;;;0.55;0.50;;;20.20;51.50;;;;;;5042882;28;20053;-42
2021/04/12 14:08:23;;;;;;;0.60;0.60;;;20.20;51.30;;;;;;5030503;28;20049;-43
2021/04/12 14:10:59;;;;;;;1.15;0.60;;;20.20;51.70;;;;;;5035614;28;20559;-43
2021/04/12 14:13:33;;;;;;;0.60;0.60;;;20.20;51.50;;;;;;5032451;28;20060;-45
2021/04/12 14:16:00;;;;;;;;;;;20.10;51.60;;;;;;5051206;28;20045;-43